sensor_id;sensor_type;location;lat;lon;timestamp;pressure;altitude;pressure_sealevel;temperature;humidity
66945;BME280;53853;51.982;5.928;2024-01-30T00:01:17;102552.81;;;7.47;80.34
66945;BME280;53853;51.982;5.928;2024-01-30T00:03:47;102549.50;;;7.43;80.54
66945;BME280;53853;51.982;5.928;2024-01-30T00:06:19;102554.81;;;7.43;80.45
66945;BME280;53853;51.982;5.928;2024-01-30T00:08:49;102557.53;;;7.41;80.75
66945;BME280;53853;51.982;5.928;2024-01-30T00:11:20;102550.59;;;7.39;80.86
66945;BME280;53853;51.982;5.928;2024-01-30T00:13:52;102560.53;;;7.35;80.53
66945;BME280;53853;51.982;5.928;2024-01-30T00:16:26;102557.38;;;7.29;80.37
66945;BME280;53853;51.982;5.928;2024-01-30T00:18:56;102555.81;;;7.24;80.51
66945;BME280;53853;51.982;5.928;2024-01-30T00:21:29;102553.25;;;7.23;80.60
66945;BME280;53853;51.982;5.928;2024-01-30T00:23:58;102555.25;;;7.19;80.52
66945;BME280;53853;51.982;5.928;2024-01-30T00:26:28;102552.75;;;7.16;80.50
66945;BME280;53853;51.982;5.928;2024-01-30T00:28:58;102551.91;;;7.16;80.48
66945;BME280;53853;51.982;5.928;2024-01-30T00:31:31;102553.09;;;7.10;80.23
66945;BME280;53853;51.982;5.928;2024-01-30T00:34:01;102554.22;;;7.06;80.38
66945;BME280;53853;51.982;5.928;2024-01-30T00:36:31;102550.69;;;7.05;80.22
66945;BME280;53853;51.982;5.928;2024-01-30T00:39:01;102549.94;;;7.03;80.35
66945;BME280;53853;51.982;5.928;2024-01-30T00:41:33;102550.00;;;7.02;80.49
66945;BME280;53853;51.982;5.928;2024-01-30T00:44:03;102546.44;;;7.03;80.97
66945;BME280;53853;51.982;5.928;2024-01-30T00:46:35;102543.88;;;7.01;81.12
66945;BME280;53853;51.982;5.928;2024-01-30T00:49:05;102546.59;;;7.00;81.30
66945;BME280;53853;51.982;5.928;2024-01-30T00:51:35;102543.00;;;7.01;81.38
66945;BME280;53853;51.982;5.928;2024-01-30T00:54:05;102548.28;;;7.01;81.37
66945;BME280;53853;51.982;5.928;2024-01-30T00:56:35;102542.22;;;6.99;81.32
66945;BME280;53853;51.982;5.928;2024-01-30T00:59:05;102543.16;;;6.98;81.46
66945;BME280;53853;51.982;5.928;2024-01-30T01:01:37;102538.81;;;6.97;81.76
66945;BME280;53853;51.982;5.928;2024-01-30T01:04:07;102543.16;;;6.98;82.11
66945;BME280;53853;51.982;5.928;2024-01-30T01:06:37;102540.50;;;6.98;81.98
66945;BME280;53853;51.982;5.928;2024-01-30T01:09:09;102540.41;;;6.99;82.03
66945;BME280;53853;51.982;5.928;2024-01-30T01:11:39;102544.78;;;7.00;81.83
66945;BME280;53853;51.982;5.928;2024-01-30T01:14:09;102539.56;;;6.99;81.55
66945;BME280;53853;51.982;5.928;2024-01-30T01:16:41;102533.44;;;6.98;81.49
66945;BME280;53853;51.982;5.928;2024-01-30T01:19:12;102530.88;;;6.97;81.25
66945;BME280;53853;51.982;5.928;2024-01-30T01:21:42;102531.97;;;6.93;80.95
66945;BME280;53853;51.982;5.928;2024-01-30T01:24:12;102529.47;;;6.89;81.08
66945;BME280;53853;51.982;5.928;2024-01-30T01:26:41;102532.38;;;6.85;80.50
66945;BME280;53853;51.982;5.928;2024-01-30T01:29:11;102537.84;;;6.82;80.69
66945;BME280;53853;51.982;5.928;2024-01-30T01:31:45;102534.34;;;6.81;80.92
66945;BME280;53853;51.982;5.928;2024-01-30T01:34:15;102530.94;;;6.79;80.71
66945;BME280;53853;51.982;5.928;2024-01-30T01:36:45;102524.84;;;6.77;80.94
66945;BME280;53853;51.982;5.928;2024-01-30T01:39:14;102524.06;;;6.75;81.06
66945;BME280;53853;51.982;5.928;2024-01-30T01:41:44;102523.41;;;6.71;81.08
66945;BME280;53853;51.982;5.928;2024-01-30T01:44:14;102526.13;;;6.70;80.98
66945;BME280;53853;51.982;5.928;2024-01-30T01:46:47;102518.34;;;6.67;81.03
66945;BME280;53853;51.982;5.928;2024-01-30T01:49:17;102521.06;;;6.65;81.19
66945;BME280;53853;51.982;5.928;2024-01-30T01:51:48;102522.88;;;6.65;81.25
66945;BME280;53853;51.982;5.928;2024-01-30T01:54:18;102521.25;;;6.62;81.23
66945;BME280;53853;51.982;5.928;2024-01-30T01:56:48;102517.91;;;6.59;80.96
66945;BME280;53853;51.982;5.928;2024-01-30T01:59:18;102520.47;;;6.60;81.11
66945;BME280;53853;51.982;5.928;2024-01-30T02:01:54;102516.09;;;6.59;81.21
66945;BME280;53853;51.982;5.928;2024-01-30T02:04:25;102516.03;;;6.61;81.34
66945;BME280;53853;51.982;5.928;2024-01-30T02:06:54;102511.66;;;6.60;81.16
66945;BME280;53853;51.982;5.928;2024-01-30T02:09:25;102510.72;;;6.61;81.37
66945;BME280;53853;51.982;5.928;2024-01-30T02:11:55;102509.72;;;6.63;81.79
66945;BME280;53853;51.982;5.928;2024-01-30T02:14:25;102515.78;;;6.65;82.02
66945;BME280;53853;51.982;5.928;2024-01-30T02:16:57;102502.63;;;6.64;82.01
66945;BME280;53853;51.982;5.928;2024-01-30T02:19:27;102514.13;;;6.63;81.83
66945;BME280;53853;51.982;5.928;2024-01-30T02:22:00;102510.56;;;6.64;81.55
66945;BME280;53853;51.982;5.928;2024-01-30T02:24:29;102515.09;;;6.62;81.75
66945;BME280;53853;51.982;5.928;2024-01-30T02:26:59;102502.78;;;6.61;81.78
66945;BME280;53853;51.982;5.928;2024-01-30T02:29:29;102502.78;;;6.61;81.69
66945;BME280;53853;51.982;5.928;2024-01-30T02:31:59;102508.06;;;6.61;82.04
66945;BME280;53853;51.982;5.928;2024-01-30T02:34:28;102503.69;;;6.60;81.81
66945;BME280;53853;51.982;5.928;2024-01-30T02:37:01;102499.44;;;6.57;81.46
66945;BME280;53853;51.982;5.928;2024-01-30T02:39:31;102495.06;;;6.56;81.77
66945;BME280;53853;51.982;5.928;2024-01-30T02:42:01;102490.66;;;6.57;81.74
66945;BME280;53853;51.982;5.928;2024-01-30T02:44:30;102495.06;;;6.56;81.91
66945;BME280;53853;51.982;5.928;2024-01-30T02:47:00;102490.66;;;6.57;82.14
66945;BME280;53853;51.982;5.928;2024-01-30T02:49:30;102486.38;;;6.54;81.99
66945;BME280;53853;51.982;5.928;2024-01-30T02:52:03;102487.13;;;6.56;82.07
66945;BME280;53853;51.982;5.928;2024-01-30T02:54:33;102487.28;;;6.53;81.59
66945;BME280;53853;51.982;5.928;2024-01-30T02:57:03;102482.97;;;6.52;81.75
66945;BME280;53853;51.982;5.928;2024-01-30T02:59:32;102471.47;;;6.51;81.57
66945;BME280;53853;51.982;5.928;2024-01-30T03:02:03;102480.38;;;6.50;81.47
66945;BME280;53853;51.982;5.928;2024-01-30T03:04:33;102479.44;;;6.51;81.67
66945;BME280;53853;51.982;5.928;2024-01-30T03:07:05;102480.13;;;6.55;82.15
66945;BME280;53853;51.982;5.928;2024-01-30T03:09:36;102479.97;;;6.58;81.91
66945;BME280;53853;51.982;5.928;2024-01-30T03:12:06;102476.38;;;6.59;81.79
66945;BME280;53853;51.982;5.928;2024-01-30T03:14:36;102475.44;;;6.60;81.75
66945;BME280;53853;51.982;5.928;2024-01-30T03:17:06;102469.25;;;6.60;81.92
66945;BME280;53853;51.982;5.928;2024-01-30T03:19:36;102473.63;;;6.61;82.21
66945;BME280;53853;51.982;5.928;2024-01-30T03:22:08;102467.25;;;6.65;82.41
66945;BME280;53853;51.982;5.928;2024-01-30T03:24:38;102466.19;;;6.67;82.65
66945;BME280;53853;51.982;5.928;2024-01-30T03:27:08;102468.78;;;6.69;82.84
66945;BME280;53853;51.982;5.928;2024-01-30T03:29:38;102461.63;;;6.71;82.66
66945;BME280;53853;51.982;5.928;2024-01-30T03:32:08;102461.63;;;6.71;82.46
66945;BME280;53853;51.982;5.928;2024-01-30T03:34:38;102454.59;;;6.70;82.39
66945;BME280;53853;51.982;5.928;2024-01-30T03:37:10;102444.91;;;6.69;82.24
66945;BME280;53853;51.982;5.928;2024-01-30T03:39:40;102452.97;;;6.67;82.20
66945;BME280;53853;51.982;5.928;2024-01-30T03:42:10;102449.72;;;6.62;81.73
66945;BME280;53853;51.982;5.928;2024-01-30T03:44:40;102447.16;;;6.61;81.94
66945;BME280;53853;51.982;5.928;2024-01-30T03:47:09;102440.03;;;6.61;81.94
66945;BME280;53853;51.982;5.928;2024-01-30T03:49:39;102438.34;;;6.60;81.78
66945;BME280;53853;51.982;5.928;2024-01-30T03:52:12;102433.81;;;6.62;82.05
66945;BME280;53853;51.982;5.928;2024-01-30T03:54:42;102438.19;;;6.63;82.04
66945;BME280;53853;51.982;5.928;2024-01-30T03:57:12;102448.06;;;6.60;82.11
66945;BME280;53853;51.982;5.928;2024-01-30T03:59:42;102442.91;;;6.58;82.36
66945;BME280;53853;51.982;5.928;2024-01-30T04:02:12;102440.03;;;6.61;82.49
66945;BME280;53853;51.982;5.928;2024-01-30T04:04:42;102434.75;;;6.61;82.40
66945;BME280;53853;51.982;5.928;2024-01-30T04:07:14;102427.75;;;6.60;82.15
66945;BME280;53853;51.982;5.928;2024-01-30T04:09:44;102439.19;;;6.61;82.21
66945;BME280;53853;51.982;5.928;2024-01-30T04:12:14;102432.97;;;6.62;82.19
66945;BME280;53853;51.982;5.928;2024-01-30T04:14:44;102436.47;;;6.62;82.35
66945;BME280;53853;51.982;5.928;2024-01-30T04:17:14;102445.19;;;6.64;82.14
66945;BME280;53853;51.982;5.928;2024-01-30T04:19:43;102440.50;;;6.69;82.45
66945;BME280;53853;51.982;5.928;2024-01-30T04:22:16;102441.34;;;6.70;82.08
66945;BME280;53853;51.982;5.928;2024-01-30T04:24:46;102437.78;;;6.71;82.14
66945;BME280;53853;51.982;5.928;2024-01-30T04:27:16;102440.34;;;6.73;82.50
66945;BME280;53853;51.982;5.928;2024-01-30T04:29:45;102446.41;;;6.75;82.41
66945;BME280;53853;51.982;5.928;2024-01-30T04:32:15;102433.16;;;6.75;82.03
66945;BME280;53853;51.982;5.928;2024-01-30T04:34:45;102436.63;;;6.75;81.99
66945;BME280;53853;51.982;5.928;2024-01-30T04:37:17;102443.50;;;6.79;82.22
66945;BME280;53853;51.982;5.928;2024-01-30T04:39:47;102439.72;;;6.83;82.63
66945;BME280;53853;51.982;5.928;2024-01-30T04:42:17;102440.34;;;6.88;82.69
66945;BME280;53853;51.982;5.928;2024-01-30T04:44:47;102437.59;;;6.90;82.77
66945;BME280;53853;51.982;5.928;2024-01-30T04:47:17;102431.34;;;6.91;82.80
66945;BME280;53853;51.982;5.928;2024-01-30T04:49:47;102427.84;;;6.91;82.44
66945;BME280;53853;51.982;5.928;2024-01-30T04:52:20;102421.59;;;6.92;82.47
66945;BME280;53853;51.982;5.928;2024-01-30T04:54:49;102431.16;;;6.94;82.77
66945;BME280;53853;51.982;5.928;2024-01-30T04:57:19;102420.38;;;6.97;82.87
66945;BME280;53853;51.982;5.928;2024-01-30T04:59:49;102417.47;;;7.02;83.18
66945;BME280;53853;51.982;5.928;2024-01-30T05:02:19;102418.94;;;7.07;83.36
66945;BME280;53853;51.982;5.928;2024-01-30T05:04:49;102416.19;;;7.09;83.00
66945;BME280;53853;51.982;5.928;2024-01-30T05:07:21;102417.03;;;7.10;82.79
66945;BME280;53853;51.982;5.928;2024-01-30T05:09:51;102416.94;;;7.11;82.86
66945;BME280;53853;51.982;5.928;2024-01-30T05:12:21;102416.69;;;7.16;83.07
66945;BME280;53853;51.982;5.928;2024-01-30T05:14:51;102407.88;;;7.15;82.80
66945;BME280;53853;51.982;5.928;2024-01-30T05:17:21;102407.97;;;7.14;82.51
66945;BME280;53853;51.982;5.928;2024-01-30T05:19:51;102408.81;;;7.14;82.57
66945;BME280;53853;51.982;5.928;2024-01-30T05:22:23;102405.34;;;7.14;82.63
66945;BME280;53853;51.982;5.928;2024-01-30T05:24:53;102416.50;;;7.19;82.92
66945;BME280;53853;51.982;5.928;2024-01-30T05:27:23;102404.78;;;7.23;83.21
66945;BME280;53853;51.982;5.928;2024-01-30T05:29:52;102410.78;;;7.27;83.37
66945;BME280;53853;51.982;5.928;2024-01-30T05:32:22;102416.06;;;7.27;83.31
66945;BME280;53853;51.982;5.928;2024-01-30T05:34:52;102415.97;;;7.28;83.19
66945;BME280;53853;51.982;5.928;2024-01-30T05:37:24;102418.47;;;7.31;83.24
66945;BME280;53853;51.982;5.928;2024-01-30T05:39:54;102419.22;;;7.33;83.28
66945;BME280;53853;51.982;5.928;2024-01-30T05:42:24;102423.47;;;7.36;83.43
66945;BME280;53853;51.982;5.928;2024-01-30T05:44:54;102426.91;;;7.38;83.40
66945;BME280;53853;51.982;5.928;2024-01-30T05:47:24;102418.84;;;7.39;83.33
66945;BME280;53853;51.982;5.928;2024-01-30T05:49:54;102427.00;;;7.36;83.06
66945;BME280;53853;51.982;5.928;2024-01-30T05:52:26;102408.53;;;7.35;82.95
66945;BME280;53853;51.982;5.928;2024-01-30T05:54:56;102404.91;;;7.36;82.88
66945;BME280;53853;51.982;5.928;2024-01-30T05:57:26;102410.19;;;7.36;83.06
66945;BME280;53853;51.982;5.928;2024-01-30T05:59:56;102406.63;;;7.37;83.06
66945;BME280;53853;51.982;5.928;2024-01-30T06:02:26;102410.91;;;7.39;83.08
66945;BME280;53853;51.982;5.928;2024-01-30T06:04:56;102399.25;;;7.42;83.33
66945;BME280;53853;51.982;5.928;2024-01-30T06:07:28;102403.53;;;7.44;83.12
66945;BME280;53853;51.982;5.928;2024-01-30T06:09:58;102413.28;;;7.44;83.09
66945;BME280;53853;51.982;5.928;2024-01-30T06:12:28;102422.00;;;7.46;83.37
66945;BME280;53853;51.982;5.928;2024-01-30T06:14:58;102428.06;;;7.48;83.35
66945;BME280;53853;51.982;5.928;2024-01-30T06:17:28;102426.09;;;7.52;83.59
66945;BME280;53853;51.982;5.928;2024-01-30T06:19:58;102412.84;;;7.52;83.16
66945;BME280;53853;51.982;5.928;2024-01-30T06:22:30;102417.09;;;7.54;83.49
66945;BME280;53853;51.982;5.928;2024-01-30T06:25:00;102409.13;;;7.54;83.24
66945;BME280;53853;51.982;5.928;2024-01-30T06:27:30;102412.72;;;7.53;83.70
66945;BME280;53853;51.982;5.928;2024-01-30T06:30:00;102401.06;;;7.56;83.64
66945;BME280;53853;51.982;5.928;2024-01-30T06:32:30;102405.28;;;7.60;83.96
66945;BME280;53853;51.982;5.928;2024-01-30T06:35:01;102407.84;;;7.61;84.19
66945;BME280;53853;51.982;5.928;2024-01-30T06:37:34;102419.09;;;7.65;84.46
66945;BME280;53853;51.982;5.928;2024-01-30T06:40:04;102414.66;;;7.66;84.35
66945;BME280;53853;51.982;5.928;2024-01-30T06:42:35;102424.41;;;7.65;84.15
66945;BME280;53853;51.982;5.928;2024-01-30T06:45:06;102420.81;;;7.66;83.93
66945;BME280;53853;51.982;5.928;2024-01-30T06:47:36;102418.09;;;7.68;83.84
66945;BME280;53853;51.982;5.928;2024-01-30T06:50:07;102427.53;;;7.72;83.85
66945;BME280;53853;51.982;5.928;2024-01-30T06:52:39;102419.50;;;7.73;84.02
66945;BME280;53853;51.982;5.928;2024-01-30T06:55:09;102417.41;;;7.78;83.98
66945;BME280;53853;51.982;5.928;2024-01-30T06:57:39;102418.19;;;7.80;84.00
66945;BME280;53853;51.982;5.928;2024-01-30T07:00:10;102414.47;;;7.83;84.17
66945;BME280;53853;51.982;5.928;2024-01-30T07:02:41;102420.47;;;7.87;84.49
66945;BME280;53853;51.982;5.928;2024-01-30T07:05:10;102422.16;;;7.88;84.50
66945;BME280;53853;51.982;5.928;2024-01-30T07:07:43;102418.47;;;7.90;84.70
66945;BME280;53853;51.982;5.928;2024-01-30T07:10:14;102420.16;;;7.91;84.63
66945;BME280;53853;51.982;5.928;2024-01-30T07:12:43;102420.84;;;7.95;84.54
66945;BME280;53853;51.982;5.928;2024-01-30T07:15:13;102427.75;;;7.97;84.37
66945;BME280;53853;51.982;5.928;2024-01-30T07:17:46;102438.00;;;8.04;84.97
66945;BME280;53853;51.982;5.928;2024-01-30T07:20:16;102431.28;;;8.12;85.39
66945;BME280;53853;51.982;5.928;2024-01-30T07:22:49;102429.09;;;8.19;85.62
66945;BME280;53853;51.982;5.928;2024-01-30T07:25:19;102433.09;;;8.26;85.64
66945;BME280;53853;51.982;5.928;2024-01-30T07:27:53;102436.31;;;8.31;85.82
66945;BME280;53853;51.982;5.928;2024-01-30T07:30:23;102444.09;;;8.34;86.07
66945;BME280;53853;51.982;5.928;2024-01-30T07:32:53;102442.84;;;8.40;86.27
66945;BME280;53853;51.982;5.928;2024-01-30T07:35:23;102446.00;;;8.47;86.43
66945;BME280;53853;51.982;5.928;2024-01-30T07:37:55;102450.00;;;8.54;86.65
66945;BME280;53853;51.982;5.928;2024-01-30T07:40:25;102443.34;;;8.61;86.70
66945;BME280;53853;51.982;5.928;2024-01-30T07:42:55;102435.94;;;8.66;87.03
66945;BME280;53853;51.982;5.928;2024-01-30T07:45:25;102447.84;;;8.74;87.31
66945;BME280;53853;51.982;5.928;2024-01-30T07:47:59;102445.78;;;8.79;87.42
66945;BME280;53853;51.982;5.928;2024-01-30T07:50:29;102448.03;;;8.85;87.58
66945;BME280;53853;51.982;5.928;2024-01-30T07:53:03;102444.97;;;8.91;87.84
66945;BME280;53853;51.982;5.928;2024-01-30T07:55:33;102435.00;;;8.95;87.63
66945;BME280;53853;51.982;5.928;2024-01-30T07:58:03;102451.59;;;8.98;87.68
66945;BME280;53853;51.982;5.928;2024-01-30T08:00:33;102456.53;;;9.04;88.16
66945;BME280;53853;51.982;5.928;2024-01-30T08:03:04;102462.19;;;9.13;88.30
66945;BME280;53853;51.982;5.928;2024-01-30T08:05:34;102469.78;;;9.19;88.64
66945;BME280;53853;51.982;5.928;2024-01-30T08:08:08;102477.16;;;9.28;88.65
66945;BME280;53853;51.982;5.928;2024-01-30T08:10:38;102467.06;;;9.33;88.60
66945;BME280;53853;51.982;5.928;2024-01-30T08:13:08;102477.09;;;9.42;88.40
66945;BME280;53853;51.982;5.928;2024-01-30T08:15:38;102482.75;;;9.51;88.21
66945;BME280;53853;51.982;5.928;2024-01-30T08:18:08;102477.78;;;9.59;88.29
66945;BME280;53853;51.982;5.928;2024-01-30T08:20:38;102481.75;;;9.66;88.29
66945;BME280;53853;51.982;5.928;2024-01-30T08:23:10;102472.38;;;9.73;88.38
66945;BME280;53853;51.982;5.928;2024-01-30T08:25:40;102481.66;;;9.81;88.47
66945;BME280;53853;51.982;5.928;2024-01-30T08:28:10;102480.25;;;9.88;88.46
66945;BME280;53853;51.982;5.928;2024-01-30T08:30:40;102487.84;;;9.94;88.66
66945;BME280;53853;51.982;5.928;2024-01-30T08:33:09;102481.13;;;10.01;88.62
66945;BME280;53853;51.982;5.928;2024-01-30T08:35:40;102485.06;;;10.08;88.81
66945;BME280;53853;51.982;5.928;2024-01-30T08:38:12;102486.38;;;10.15;88.93
66945;BME280;53853;51.982;5.928;2024-01-30T08:40:42;102477.06;;;10.21;88.98
66945;BME280;53853;51.982;5.928;2024-01-30T08:43:13;102481.13;;;10.27;89.06
66945;BME280;53853;51.982;5.928;2024-01-30T08:45:43;102479.00;;;10.32;89.50
66945;BME280;53853;51.982;5.928;2024-01-30T08:48:13;102473.16;;;10.40;89.69
66945;BME280;53853;51.982;5.928;2024-01-30T08:50:44;102478.16;;;10.44;89.94
66945;BME280;53853;51.982;5.928;2024-01-30T08:53:17;102480.28;;;10.52;89.92
66945;BME280;53853;51.982;5.928;2024-01-30T08:55:47;102482.63;;;10.57;90.07
66945;BME280;53853;51.982;5.928;2024-01-30T08:58:16;102483.16;;;10.62;89.97
66945;BME280;53853;51.982;5.928;2024-01-30T09:00:47;102483.66;;;10.67;89.45
66945;BME280;53853;51.982;5.928;2024-01-30T09:03:18;102482.50;;;10.71;89.39
66945;BME280;53853;51.982;5.928;2024-01-30T09:05:48;102480.34;;;10.76;89.19
66945;BME280;53853;51.982;5.928;2024-01-30T09:08:21;102488.84;;;10.81;89.19
66945;BME280;53853;51.982;5.928;2024-01-30T09:10:51;102479.69;;;10.85;89.34
66945;BME280;53853;51.982;5.928;2024-01-30T09:13:21;102476.69;;;10.90;89.03
66945;BME280;53853;51.982;5.928;2024-01-30T09:15:51;102476.47;;;10.93;88.62
66945;BME280;53853;51.982;5.928;2024-01-30T09:18:22;102490.53;;;10.95;88.06
66945;BME280;53853;51.982;5.928;2024-01-30T09:20:51;102488.59;;;10.97;87.52
66945;BME280;53853;51.982;5.928;2024-01-30T09:23:24;102480.47;;;10.99;86.49
66945;BME280;53853;51.982;5.928;2024-01-30T09:25:54;102492.66;;;11.03;85.72
66945;BME280;53853;51.982;5.928;2024-01-30T09:28:24;102484.53;;;11.04;85.32
66945;BME280;53853;51.982;5.928;2024-01-30T09:30:54;102486.03;;;11.09;85.44
66945;BME280;53853;51.982;5.928;2024-01-30T09:33:24;102487.47;;;11.13;85.61
66945;BME280;53853;51.982;5.928;2024-01-30T09:35:54;102483.63;;;11.17;85.04
66945;BME280;53853;51.982;5.928;2024-01-30T09:38:27;102485.97;;;11.21;85.10
66945;BME280;53853;51.982;5.928;2024-01-30T09:40:58;102489.25;;;11.25;85.03
66945;BME280;53853;51.982;5.928;2024-01-30T09:43:33;102486.34;;;11.28;84.16
66945;BME280;53853;51.982;5.928;2024-01-30T09:46:04;102494.03;;;11.33;84.20
66945;BME280;53853;51.982;5.928;2024-01-30T09:48:35;102506.16;;;11.37;84.02
66945;BME280;53853;51.982;5.928;2024-01-30T09:51:06;102502.31;;;11.41;83.36
66945;BME280;53853;51.982;5.928;2024-01-30T09:53:41;102495.91;;;11.44;82.70
66945;BME280;53853;51.982;5.928;2024-01-30T09:56:13;102493.13;;;11.45;81.60
66945;BME280;53853;51.982;5.928;2024-01-30T09:58:43;102496.50;;;11.47;81.40
66945;BME280;53853;51.982;5.928;2024-01-30T10:01:13;102501.63;;;11.50;81.51
66945;BME280;53853;51.982;5.928;2024-01-30T10:03:45;102504.06;;;11.53;81.29
66945;BME280;53853;51.982;5.928;2024-01-30T10:06:15;102496.91;;;11.54;81.08
66945;BME280;53853;51.982;5.928;2024-01-30T10:08:48;102505.53;;;11.57;80.83
66945;BME280;53853;51.982;5.928;2024-01-30T10:11:18;102500.94;;;11.59;81.04
66945;BME280;53853;51.982;5.928;2024-01-30T10:13:48;102504.34;;;11.62;81.53
66945;BME280;53853;51.982;5.928;2024-01-30T10:16:18;102503.75;;;11.69;81.12
66945;BME280;53853;51.982;5.928;2024-01-30T10:18:48;102498.91;;;11.74;81.34
66945;BME280;53853;51.982;5.928;2024-01-30T10:21:18;102505.63;;;11.80;79.57
66945;BME280;53853;51.982;5.928;2024-01-30T10:23:51;102507.06;;;11.84;79.29
66945;BME280;53853;51.982;5.928;2024-01-30T10:26:21;102513.13;;;11.86;79.15
66945;BME280;53853;51.982;5.928;2024-01-30T10:28:51;102512.91;;;11.89;78.59
66945;BME280;53853;51.982;5.928;2024-01-30T10:31:21;102506.59;;;11.90;78.98
66945;BME280;53853;51.982;5.928;2024-01-30T10:33:51;102511.00;;;11.91;79.02
66945;BME280;53853;51.982;5.928;2024-01-30T10:36:25;102511.00;;;11.91;79.33
66945;BME280;53853;51.982;5.928;2024-01-30T10:39:00;102506.53;;;11.92;78.81
66945;BME280;53853;51.982;5.928;2024-01-30T10:41:38;102511.00;;;11.91;78.86
66945;BME280;53853;51.982;5.928;2024-01-30T10:44:12;102497.63;;;11.91;78.65
66945;BME280;53853;51.982;5.928;2024-01-30T10:46:49;102501.78;;;11.95;77.90
66945;BME280;53853;51.982;5.928;2024-01-30T10:49:21;102504.34;;;11.97;77.23
66945;BME280;53853;51.982;5.928;2024-01-30T10:51:52;102497.06;;;11.99;77.58
66945;BME280;53853;51.982;5.928;2024-01-30T10:54:26;102509.34;;;12.02;78.10
66945;BME280;53853;51.982;5.928;2024-01-30T10:56:57;102513.59;;;12.04;78.35
66945;BME280;53853;51.982;5.928;2024-01-30T10:59:31;102507.03;;;12.08;78.14
66945;BME280;53853;51.982;5.928;2024-01-30T11:02:01;102505.84;;;12.12;78.43
66945;BME280;53853;51.982;5.928;2024-01-30T11:04:36;102515.31;;;12.17;78.06
66945;BME280;53853;51.982;5.928;2024-01-30T11:07:15;102516.91;;;12.19;78.20
66945;BME280;53853;51.982;5.928;2024-01-30T11:09:59;102515.94;;;12.20;77.97
66945;BME280;53853;51.982;5.928;2024-01-30T11:12:31;102511.31;;;12.22;77.67
66945;BME280;53853;51.982;5.928;2024-01-30T11:15:04;102496.00;;;12.24;77.76
66945;BME280;53853;51.982;5.928;2024-01-30T11:17:41;102501.09;;;12.27;77.45
66945;BME280;53853;51.982;5.928;2024-01-30T11:20:12;102505.13;;;12.33;77.66
66945;BME280;53853;51.982;5.928;2024-01-30T11:22:45;102516.44;;;12.37;77.88
66945;BME280;53853;51.982;5.928;2024-01-30T11:25:19;102505.38;;;12.41;78.01
66945;BME280;53853;51.982;5.928;2024-01-30T11:27:51;102511.06;;;12.48;78.17
66945;BME280;53853;51.982;5.928;2024-01-30T11:30:24;102514.16;;;12.55;77.27
66945;BME280;53853;51.982;5.928;2024-01-30T11:33:02;102513.03;;;12.57;76.45
66945;BME280;53853;51.982;5.928;2024-01-30T11:35:35;102498.69;;;12.58;76.82
66945;BME280;53853;51.982;5.928;2024-01-30T11:38:07;102505.59;;;12.61;76.99
66945;BME280;53853;51.982;5.928;2024-01-30T11:40:40;102501.13;;;12.61;77.16
66945;BME280;53853;51.982;5.928;2024-01-30T11:43:10;102494.78;;;12.62;76.13
66945;BME280;53853;51.982;5.928;2024-01-30T11:45:39;102488.59;;;12.62;74.64
66945;BME280;53853;51.982;5.928;2024-01-30T11:48:12;102511.34;;;12.67;75.05
66945;BME280;53853;51.982;5.928;2024-01-30T11:50:42;102504.63;;;12.73;74.49
66945;BME280;53853;51.982;5.928;2024-01-30T11:53:12;102506.22;;;12.76;73.74
66945;BME280;53853;51.982;5.928;2024-01-30T11:55:50;102502.47;;;12.78;73.57
66945;BME280;53853;51.982;5.928;2024-01-30T11:58:19;102498.44;;;12.84;73.53
66945;BME280;53853;51.982;5.928;2024-01-30T12:00:56;102497.94;;;12.90;74.71
66945;BME280;53853;51.982;5.928;2024-01-30T12:03:26;102504.75;;;12.94;72.76
66945;BME280;53853;51.982;5.928;2024-01-30T12:05:57;102506.19;;;12.98;72.00
66945;BME280;53853;51.982;5.928;2024-01-30T12:08:28;102507.19;;;12.97;71.95
66945;BME280;53853;51.982;5.928;2024-01-30T12:11:00;102505.47;;;12.96;71.14
66945;BME280;53853;51.982;5.928;2024-01-30T12:13:31;102502.78;;;12.96;71.56
66945;BME280;53853;51.982;5.928;2024-01-30T12:16:01;102512.78;;;12.94;71.93
66945;BME280;53853;51.982;5.928;2024-01-30T12:18:31;102504.75;;;12.94;71.84
66945;BME280;53853;51.982;5.928;2024-01-30T12:21:01;102504.88;;;12.93;72.63
66945;BME280;53853;51.982;5.928;2024-01-30T12:23:32;102497.56;;;12.95;71.83
66945;BME280;53853;51.982;5.928;2024-01-30T12:26:05;102505.00;;;12.91;71.92
66945;BME280;53853;51.982;5.928;2024-01-30T12:28:35;102510.09;;;12.94;72.05
66945;BME280;53853;51.982;5.928;2024-01-30T12:31:05;102503.88;;;12.94;72.03
66945;BME280;53853;51.982;5.928;2024-01-30T12:33:36;102508.13;;;12.96;69.92
66945;BME280;53853;51.982;5.928;2024-01-30T12:36:07;102523.59;;;12.93;69.76
66945;BME280;53853;51.982;5.928;2024-01-30T12:38:37;102518.84;;;12.96;69.54
66945;BME280;53853;51.982;5.928;2024-01-30T12:41:11;102525.25;;;13.05;70.32
66945;BME280;53853;51.982;5.928;2024-01-30T12:43:41;102545.34;;;13.11;67.56
66945;BME280;53853;51.982;5.928;2024-01-30T12:46:11;102559.09;;;12.95;67.87
66945;BME280;53853;51.982;5.928;2024-01-30T12:48:41;102558.66;;;12.78;68.11
66945;BME280;53853;51.982;5.928;2024-01-30T12:51:11;102552.31;;;12.57;68.24
66945;BME280;53853;51.982;5.928;2024-01-30T12:53:40;102568.59;;;12.42;68.84
66945;BME280;53853;51.982;5.928;2024-01-30T12:56:13;102558.25;;;12.38;69.59
66945;BME280;53853;51.982;5.928;2024-01-30T12:58:44;102563.22;;;12.42;70.05
66945;BME280;53853;51.982;5.928;2024-01-30T13:01:14;102557.78;;;12.44;69.64
66945;BME280;53853;51.982;5.928;2024-01-30T13:03:43;102576.50;;;12.44;68.93
66945;BME280;53853;51.982;5.928;2024-01-30T13:06:13;102578.91;;;12.36;68.91
66945;BME280;53853;51.982;5.928;2024-01-30T13:08:43;102584.50;;;12.32;68.96
66945;BME280;53853;51.982;5.928;2024-01-30T13:11:16;102583.00;;;12.28;69.00
66945;BME280;53853;51.982;5.928;2024-01-30T13:13:45;102573.03;;;12.30;69.32
66945;BME280;53853;51.982;5.928;2024-01-30T13:16:15;102576.72;;;12.29;68.76